createdAt,value
2019-01-12T00:02:15.225Z,5.37
2019-01-12T00:04:46.446Z,5.90
2019-01-12T00:07:17.100Z,5.13
2019-01-12T00:09:47.747Z,6.40
2019-01-12T00:12:18.757Z,6.20
2019-01-12T00:14:49.764Z,6.50
2019-01-12T00:17:20.559Z,4.80
2019-01-12T00:19:51.342Z,5.17
2019-01-12T00:22:21.985Z,5.00
2019-01-12T00:24:52.592Z,5.60
2019-01-12T00:27:23.229Z,5.50
2019-01-12T00:29:53.848Z,5.25
2019-01-12T00:32:25.036Z,6.40
2019-01-12T00:34:55.882Z,5.47
2019-01-12T00:37:26.639Z,4.53
2019-01-12T00:39:57.232Z,5.17
2019-01-12T00:42:27.976Z,5.70
2019-01-12T00:44:59.330Z,5.60
2019-01-12T00:47:30.295Z,5.07
2019-01-12T00:50:01.060Z,5.77
2019-01-12T00:52:31.639Z,5.15
2019-01-12T00:55:02.243Z,5.08
2019-01-12T00:57:32.950Z,3.90
2019-01-12T01:00:03.772Z,5.78
2019-01-12T01:02:34.624Z,5.58
2019-01-12T01:05:06.494Z,5.43
2019-01-12T01:07:37.027Z,5.80
2019-01-12T01:10:12.255Z,5.13
2019-01-12T01:12:43.383Z,5.73
2019-01-12T01:15:13.997Z,4.53
2019-01-12T01:17:44.881Z,4.93
2019-01-12T01:20:16.175Z,5.83
2019-01-12T01:22:46.929Z,6.20
2019-01-12T01:25:17.452Z,5.57
2019-01-12T01:27:48.101Z,5.67
2019-01-12T01:30:21.076Z,5.50
2019-01-12T01:32:51.957Z,5.73
2019-01-12T01:35:23.653Z,5.47
2019-01-12T01:37:55.144Z,5.07
2019-01-12T01:40:25.716Z,5.83
2019-01-12T01:42:56.784Z,5.37
2019-01-12T01:45:27.424Z,5.90
2019-01-12T01:47:58.087Z,6.33
2019-01-12T01:50:29.047Z,5.13
2019-01-12T01:52:59.894Z,5.35
2019-01-12T01:55:30.934Z,5.00
2019-01-12T01:58:01.483Z,5.72
2019-01-12T02:00:32.076Z,4.03
2019-01-12T02:03:02.710Z,5.53
2019-01-12T02:05:33.558Z,4.40
2019-01-12T02:08:04.174Z,5.45
2019-01-12T02:10:40.408Z,3.80
2019-01-12T02:13:11.048Z,5.50
2019-01-12T02:15:41.924Z,5.17
2019-01-12T02:18:12.575Z,5.35
2019-01-12T02:20:43.179Z,4.47
2019-01-12T02:23:13.800Z,4.80
2019-01-12T02:25:44.404Z,4.90
2019-01-12T02:28:15.722Z,4.60
2019-01-12T02:30:46.694Z,5.15
2019-01-12T02:33:18.331Z,3.93
2019-01-12T02:35:49.630Z,4.85
2019-01-12T02:38:20.755Z,5.73
2019-01-12T02:40:52.047Z,4.80
2019-01-12T02:43:23.443Z,5.45
2019-01-12T02:45:54.684Z,5.33
2019-01-12T02:48:25.949Z,5.53
2019-01-12T02:50:57.110Z,5.93
2019-01-12T02:53:28.374Z,4.73
2019-01-12T02:55:59.774Z,5.90
2019-01-12T02:58:30.718Z,4.83
2019-01-12T03:01:01.376Z,5.63
2019-01-12T03:03:32.975Z,5.13
2019-01-12T03:06:05.183Z,4.37
2019-01-12T03:08:36.423Z,4.00
2019-01-12T03:11:07.435Z,3.73
2019-01-12T03:13:38.378Z,4.50
2019-01-12T03:16:09.309Z,3.87
2019-01-12T03:18:40.649Z,3.90
2019-01-12T03:21:11.603Z,3.37
2019-01-12T03:23:42.971Z,4.50
2019-01-12T03:26:14.705Z,5.07
2019-01-12T03:28:45.900Z,3.67
2019-01-12T03:31:17.387Z,4.58
2019-01-12T03:33:50.071Z,3.70
2019-01-12T03:36:20.865Z,4.60
2019-01-12T03:38:52.045Z,4.27
2019-01-12T03:41:22.745Z,3.63
2019-01-12T03:43:53.626Z,3.30
2019-01-12T03:46:24.882Z,3.58
2019-01-12T03:48:55.963Z,3.40
2019-01-12T03:51:26.892Z,3.33
2019-01-12T03:53:57.835Z,3.63
2019-01-12T03:56:29.160Z,3.93
2019-01-12T03:59:00.127Z,3.58
2019-01-12T04:01:31.396Z,4.63
2019-01-12T04:04:02.724Z,3.57
2019-01-12T04:06:33.661Z,3.50
2019-01-12T04:09:07.037Z,4.03
2019-01-12T04:11:38.438Z,3.97
2019-01-12T04:14:09.102Z,3.10
2019-01-12T04:16:40.261Z,3.97
2019-01-12T04:19:11.161Z,3.63
2019-01-12T04:21:41.775Z,3.90
2019-01-12T04:24:12.381Z,4.33
2019-01-12T04:26:43.241Z,4.30
2019-01-12T04:29:13.853Z,4.05
2019-01-12T04:31:45.230Z,3.98
2019-01-12T04:34:16.977Z,4.55
2019-01-12T04:36:47.876Z,4.20
2019-01-12T04:39:19.441Z,4.23
2019-01-12T04:41:50.725Z,4.55
2019-01-12T04:44:21.955Z,4.55
2019-01-12T04:46:53.186Z,4.17
2019-01-12T04:49:24.510Z,4.67
2019-01-12T04:51:56.089Z,4.75
2019-01-12T04:54:27.454Z,5.23
2019-01-12T04:56:58.419Z,3.77
2019-01-12T04:59:29.404Z,4.40
2019-01-12T05:02:00.361Z,3.70
2019-01-12T05:04:31.354Z,4.23
2019-01-12T05:07:02.308Z,3.47
2019-01-12T05:09:35.944Z,3.10
2019-01-12T05:12:07.017Z,2.80
2019-01-12T05:14:37.609Z,3.20
2019-01-12T05:17:09.556Z,2.93
2019-01-12T05:19:40.229Z,2.70
2019-01-12T05:22:11.472Z,3.00
2019-01-12T05:24:42.761Z,2.75
2019-01-12T05:27:13.765Z,3.10
2019-01-12T05:29:44.800Z,3.03
2019-01-12T05:32:15.760Z,3.03
2019-01-12T05:34:47.061Z,2.70
2019-01-12T05:37:17.730Z,3.03
2019-01-12T05:39:48.465Z,2.60
2019-01-12T05:42:19.360Z,3.00
2019-01-12T05:44:50.244Z,2.87
2019-01-12T05:47:20.840Z,2.97
2019-01-12T05:49:51.491Z,4.23
2019-01-12T05:52:22.151Z,3.67
2019-01-12T05:54:52.741Z,2.90
2019-01-12T05:57:23.322Z,2.83
2019-01-12T05:59:53.841Z,2.60
2019-01-12T06:02:24.444Z,2.77
2019-01-12T06:04:55.127Z,2.87
2019-01-12T06:07:25.652Z,3.00
2019-01-12T06:09:56.187Z,2.53
2019-01-12T06:12:26.878Z,2.90
2019-01-12T06:14:57.481Z,3.00
2019-01-12T06:17:29.231Z,2.85
2019-01-12T06:20:00.213Z,3.12
2019-01-12T06:22:30.903Z,3.27
2019-01-12T06:25:01.579Z,3.33
2019-01-12T06:27:32.085Z,3.77
2019-01-12T06:30:02.692Z,3.50
2019-01-12T06:32:33.564Z,3.80
2019-01-12T06:35:04.736Z,3.33
2019-01-12T06:37:35.496Z,3.80
2019-01-12T06:40:09.379Z,3.40
2019-01-12T06:42:40.292Z,3.77
2019-01-12T06:45:12.584Z,3.05
2019-01-12T06:47:43.211Z,3.60
2019-01-12T06:50:15.533Z,3.37
2019-01-12T06:52:46.535Z,3.50
2019-01-12T06:55:19.892Z,3.92
2019-01-12T06:57:51.124Z,6.07
2019-01-12T07:00:22.271Z,3.97
2019-01-12T07:02:52.865Z,4.27
2019-01-12T07:05:23.502Z,3.67
2019-01-12T07:07:54.011Z,4.13
2019-01-12T07:10:37.542Z,3.90
2019-01-12T07:13:08.523Z,4.23
2019-01-12T07:15:39.397Z,3.70
2019-01-12T07:18:09.992Z,3.97
2019-01-12T07:20:40.634Z,4.00
2019-01-12T07:23:11.252Z,3.57
2019-01-12T07:25:42.048Z,3.63
2019-01-12T07:28:12.777Z,3.80
2019-01-12T07:30:44.515Z,4.37
2019-01-12T07:33:15.205Z,4.50
2019-01-12T07:35:45.886Z,5.53
2019-01-12T07:38:16.532Z,4.43
2019-01-12T07:40:47.950Z,4.87
2019-01-12T07:43:18.574Z,5.70
2019-01-12T07:45:49.190Z,4.97
2019-01-12T07:48:19.792Z,4.47
2019-01-12T07:50:50.534Z,4.80
2019-01-12T07:53:24.351Z,4.57
2019-01-12T07:55:55.938Z,4.60
2019-01-12T07:58:26.584Z,4.60
2019-01-12T08:00:57.121Z,4.30
2019-01-12T08:03:28.005Z,5.43
2019-01-12T08:05:58.567Z,4.23
2019-01-12T08:08:29.459Z,4.20
2019-01-12T08:11:00.227Z,3.72
2019-01-12T08:13:31.343Z,3.90
2019-01-12T08:16:02.266Z,3.50
2019-01-12T08:18:32.776Z,4.03
2019-01-12T08:21:03.738Z,4.20
2019-01-12T08:23:34.375Z,3.87
2019-01-12T08:26:04.973Z,3.57
2019-01-12T08:28:36.341Z,3.10
2019-01-12T08:31:06.954Z,3.37
2019-01-12T08:33:37.854Z,3.27
2019-01-12T08:36:08.551Z,3.10
2019-01-12T08:38:39.478Z,3.27
2019-01-12T08:41:10.539Z,2.93
2019-01-12T08:43:41.213Z,2.57
2019-01-12T08:46:12.026Z,2.43
2019-01-12T08:48:45.648Z,2.37
2019-01-12T08:51:16.309Z,2.37
2019-01-12T08:53:47.280Z,2.47
2019-01-12T08:56:18.194Z,2.37
2019-01-12T08:58:48.785Z,2.20
2019-01-12T09:01:19.371Z,2.10
2019-01-12T09:03:50.238Z,1.75
2019-01-12T09:06:21.400Z,1.65
2019-01-12T09:08:52.556Z,2.30
2019-01-12T09:11:23.442Z,2.00
2019-01-12T09:13:54.115Z,2.30
2019-01-12T09:16:24.718Z,2.00
2019-01-12T09:18:55.719Z,2.00
2019-01-12T09:21:26.945Z,1.93
2019-01-12T09:23:57.985Z,1.60
2019-01-12T09:26:28.859Z,2.10
2019-01-12T09:28:59.514Z,2.50
2019-01-12T09:31:30.396Z,2.10
2019-01-12T09:34:00.984Z,2.27
2019-01-12T09:36:31.745Z,2.10
2019-01-12T09:39:02.545Z,2.47
2019-01-12T09:41:33.458Z,2.80
2019-01-12T09:44:04.131Z,2.73
2019-01-12T09:46:34.974Z,2.73
2019-01-12T09:49:05.502Z,3.20
2019-01-12T09:51:36.145Z,2.87
2019-01-12T09:54:06.781Z,3.00
2019-01-12T09:56:37.953Z,3.80
2019-01-12T09:59:09.192Z,3.50
2019-01-12T10:01:39.655Z,3.20
2019-01-12T10:04:10.545Z,3.73
2019-01-12T10:06:43.642Z,3.73
2019-01-12T10:09:14.247Z,3.30
2019-01-12T10:11:44.856Z,2.43
2019-01-12T10:14:15.426Z,2.83
2019-01-12T10:16:46.010Z,2.90
2019-01-12T10:19:17.220Z,3.02
2019-01-12T10:21:48.177Z,3.50
2019-01-12T10:24:19.387Z,4.10
2019-01-12T10:26:50.074Z,4.33
2019-01-12T10:29:20.738Z,4.47
2019-01-12T10:31:51.286Z,5.00
2019-01-12T10:34:22.233Z,5.03
2019-01-12T10:36:52.891Z,4.97
2019-01-12T10:39:23.540Z,5.17
2019-01-12T10:41:54.351Z,5.60
2019-01-12T10:44:25.392Z,5.40
2019-01-12T10:46:56.913Z,5.37
2019-01-12T10:49:27.811Z,5.00
2019-01-12T10:51:58.488Z,4.70
2019-01-12T10:54:29.420Z,4.90
2019-01-12T10:57:05.447Z,4.93
2019-01-12T10:59:32.446Z,4.63
2019-01-12T11:02:03.326Z,5.40
2019-01-12T11:04:33.976Z,5.00
2019-01-12T11:07:05.009Z,5.40
2019-01-12T11:09:36.060Z,5.03
2019-01-12T11:12:06.683Z,5.50
2019-01-12T11:14:37.363Z,5.23
2019-01-12T11:17:08.329Z,4.80
2019-01-12T11:19:39.186Z,4.83
2019-01-12T11:22:09.846Z,4.60
2019-01-12T11:24:40.456Z,4.80
2019-01-12T11:27:12.330Z,5.40
2019-01-12T11:29:43.304Z,4.83
2019-01-12T11:32:14.546Z,4.87
2019-01-12T11:34:45.257Z,5.27
2019-01-12T11:37:17.470Z,4.87
2019-01-12T11:39:48.085Z,4.77
2019-01-12T11:42:19.386Z,4.60
2019-01-12T11:44:50.911Z,4.70
2019-01-12T11:47:22.189Z,4.50
2019-01-12T11:49:54.820Z,4.83
2019-01-12T11:52:25.939Z,4.80
2019-01-12T11:54:57.319Z,5.10
2019-01-12T11:57:32.414Z,5.83
2019-01-12T12:00:03.550Z,5.30
2019-01-12T12:02:37.848Z,5.20
2019-01-12T12:05:07.688Z,5.42
2019-01-12T12:07:38.376Z,5.53
2019-01-12T12:10:09.472Z,5.30
2019-01-12T12:12:40.060Z,6.10
2019-01-12T12:15:12.081Z,6.67
2019-01-12T12:17:43.036Z,7.33
2019-01-12T12:20:18.063Z,6.87
2019-01-12T12:22:49.029Z,6.60
2019-01-12T12:25:19.644Z,7.27
2019-01-12T12:27:50.282Z,7.33
2019-01-12T12:30:26.830Z,8.27
2019-01-12T12:32:57.748Z,8.70
2019-01-12T12:35:28.397Z,8.10
2019-01-12T12:37:59.089Z,8.73
2019-01-12T12:40:29.720Z,8.33
2019-01-12T12:43:00.669Z,8.90
2019-01-12T12:45:36.555Z,9.30
2019-01-12T12:48:07.526Z,9.47
2019-01-12T12:53:14.693Z,9.97
2019-01-12T12:55:45.452Z,10.37
2019-01-12T12:58:16.094Z,9.97
2019-01-12T13:00:48.150Z,10.10
2019-01-12T13:03:19.190Z,10.23
2019-01-12T13:05:50.150Z,10.87
2019-01-12T13:11:17.747Z,12.18
2019-01-12T13:13:48.796Z,11.22
2019-01-12T13:16:19.776Z,10.40
2019-01-12T13:18:50.840Z,11.00
2019-01-12T13:21:21.499Z,11.13
2019-01-12T13:23:52.137Z,12.20
2019-01-12T13:26:23.266Z,11.60
2019-01-12T13:28:54.430Z,11.27
2019-01-12T13:31:26.702Z,12.43
2019-01-12T13:33:57.453Z,11.77
2019-01-12T13:36:28.146Z,12.73
2019-01-12T13:38:58.900Z,13.50
2019-01-12T13:41:29.887Z,12.47
2019-01-12T13:44:00.665Z,12.53
2019-01-12T13:46:31.636Z,12.03
2019-01-12T13:49:02.386Z,13.08
2019-01-12T13:51:33.340Z,13.03
2019-01-12T13:54:04.076Z,13.43
2019-01-12T13:56:34.815Z,12.53
2019-01-12T13:59:05.612Z,12.93
2019-01-12T14:01:36.237Z,13.13
2019-01-12T14:04:07.280Z,13.48
2019-01-12T14:06:38.179Z,13.33
2019-01-12T14:09:10.137Z,13.28
2019-01-12T14:11:41.388Z,12.68
2019-01-12T14:14:12.046Z,12.67
2019-01-12T14:16:42.776Z,10.97
2019-01-12T14:19:13.815Z,12.35
2019-01-12T14:21:44.838Z,11.90
2019-01-12T14:24:15.816Z,12.23
2019-01-12T14:26:46.546Z,13.37
2019-01-12T14:29:17.161Z,12.20
2019-01-12T14:31:48.081Z,12.13
2019-01-12T14:34:19.059Z,12.10
2019-01-12T14:36:50.167Z,12.30
2019-01-12T14:39:20.839Z,12.40
2019-01-12T14:41:52.068Z,11.80
2019-01-12T14:44:22.776Z,12.47
2019-01-12T14:46:53.490Z,12.53
2019-01-12T14:49:24.432Z,12.43
2019-01-12T14:51:55.088Z,12.40
2019-01-12T14:54:26.016Z,12.23
2019-01-12T14:56:57.326Z,11.97
2019-01-12T14:59:28.563Z,11.07
2019-01-12T15:01:59.858Z,11.40
2019-01-12T15:04:30.952Z,11.93
2019-01-12T15:07:02.036Z,11.87
2019-01-12T15:09:32.726Z,12.50
2019-01-12T15:12:03.530Z,12.77
2019-01-12T15:14:34.271Z,12.03
2019-01-12T15:17:05.412Z,12.07
2019-01-12T15:19:36.230Z,12.53
2019-01-12T15:22:09.781Z,13.27
2019-01-12T15:24:40.472Z,11.80
2019-01-12T15:27:11.227Z,12.00
2019-01-12T15:29:41.862Z,11.73
2019-01-12T15:32:12.532Z,11.80
2019-01-12T15:34:43.338Z,11.30
2019-01-12T15:37:13.957Z,11.57
2019-01-12T15:39:44.578Z,11.20
2019-01-12T15:42:17.077Z,11.17
2019-01-12T15:44:48.283Z,11.27
2019-01-12T15:47:18.947Z,11.27
2019-01-12T15:49:49.631Z,10.77
2019-01-12T15:52:20.574Z,11.53
2019-01-12T15:54:51.519Z,11.50
2019-01-12T15:57:23.039Z,14.43
2019-01-12T15:59:53.763Z,12.10
2019-01-12T16:02:24.688Z,13.13
2019-01-12T16:04:55.369Z,12.20
2019-01-12T16:07:26.048Z,11.50
2019-01-12T16:09:57.034Z,11.03
2019-01-12T16:12:28.152Z,10.83
2019-01-12T16:14:59.338Z,10.63
2019-01-12T16:17:29.971Z,10.37
2019-01-12T16:20:01.048Z,10.70
2019-01-12T16:22:32.062Z,10.10
2019-01-12T16:25:03.393Z,8.93
2019-01-12T16:27:34.079Z,9.38
2019-01-12T16:30:05.585Z,9.43
2019-01-12T16:32:36.255Z,10.05
2019-01-12T16:38:30.934Z,9.60
2019-01-12T16:39:17.537Z,9.43
2019-01-12T16:41:02.889Z,10.93
2019-01-12T16:43:34.060Z,10.50
2019-01-12T16:46:05.180Z,10.53
2019-01-12T16:48:36.377Z,9.53
2019-01-12T16:51:07.544Z,9.50
2019-01-12T16:53:39.232Z,9.20
2019-01-12T16:56:10.352Z,9.60
2019-01-12T16:58:41.774Z,8.90
2019-01-12T17:01:13.114Z,9.20
2019-01-12T17:03:44.156Z,9.47
2019-01-12T17:06:14.899Z,8.93
2019-01-12T17:08:45.880Z,8.43
2019-01-12T17:11:16.517Z,7.40
2019-01-12T17:13:47.245Z,7.90
2019-01-12T17:16:18.163Z,7.73
2019-01-12T17:18:48.780Z,8.20
2019-01-12T17:21:19.727Z,6.87
2019-01-12T17:23:50.455Z,7.40
2019-01-12T17:26:21.082Z,6.67
2019-01-12T17:28:51.798Z,7.30
2019-01-12T17:31:22.425Z,7.10
2019-01-12T17:33:53.625Z,10.23
2019-01-12T17:36:24.401Z,6.17
2019-01-12T17:38:55.076Z,6.47
2019-01-12T17:41:26.000Z,6.40
2019-01-12T17:43:57.259Z,6.57
2019-01-12T17:46:28.310Z,6.20
2019-01-12T17:48:58.959Z,6.83
2019-01-12T17:51:29.647Z,6.57
2019-01-12T17:54:00.635Z,6.40
2019-01-12T17:56:31.278Z,7.77
2019-01-12T17:59:02.094Z,7.07
2019-01-12T18:01:33.091Z,7.55
2019-01-12T18:04:03.800Z,7.60
2019-01-12T18:06:34.956Z,7.57
2019-01-12T18:09:07.321Z,7.37
2019-01-12T18:11:38.039Z,6.97
2019-01-12T18:14:09.058Z,6.57
2019-01-12T18:16:39.765Z,6.87
2019-01-12T18:19:10.434Z,6.53
2019-01-12T18:21:41.513Z,6.80
2019-01-12T18:24:12.139Z,6.37
2019-01-12T18:26:43.376Z,7.37
2019-01-12T18:29:13.974Z,7.67
2019-01-12T18:31:44.923Z,7.90
2019-01-12T18:34:15.687Z,7.37
2019-01-12T18:36:46.451Z,7.73
2019-01-12T18:39:17.680Z,7.40
2019-01-12T18:41:48.455Z,5.80
2019-01-12T18:44:19.536Z,6.10
2019-01-12T18:46:50.273Z,6.40
2019-01-12T18:49:20.982Z,5.47
2019-01-12T18:51:51.859Z,5.60
2019-01-12T18:54:22.500Z,5.50
2019-01-12T18:56:53.346Z,4.97
2019-01-12T18:59:24.023Z,5.50
2019-01-12T19:01:54.650Z,4.80
2019-01-12T19:04:25.593Z,4.73
2019-01-12T19:06:56.544Z,5.05
2019-01-12T19:09:27.489Z,4.40
2019-01-12T19:11:58.430Z,4.85
2019-01-12T19:14:29.127Z,5.93
2019-01-12T19:16:59.866Z,5.40
2019-01-12T19:19:30.565Z,4.70
2019-01-12T19:22:01.260Z,5.73
2019-01-12T19:24:33.214Z,4.47
2019-01-12T19:27:03.932Z,5.17
2019-01-12T19:29:34.826Z,6.27
2019-01-12T19:32:05.784Z,6.27
2019-01-12T19:34:36.475Z,6.27
2019-01-12T19:39:44.075Z,6.40
2019-01-12T19:42:17.932Z,6.83
2019-01-12T19:44:48.581Z,5.73
2019-01-12T19:47:19.318Z,5.60
2019-01-12T19:49:52.991Z,5.73
2019-01-12T19:52:23.983Z,5.77
2019-01-12T19:54:54.724Z,7.10
2019-01-12T19:57:25.359Z,5.63
2019-01-12T19:59:56.842Z,4.57
2019-01-12T20:02:27.454Z,5.42
2019-01-12T20:04:58.125Z,5.80
2019-01-12T20:07:28.834Z,5.13
2019-01-12T20:09:59.565Z,4.42
2019-01-12T20:12:30.470Z,4.83
2019-01-12T20:15:01.209Z,4.33
2019-01-12T20:17:32.177Z,4.87
2019-01-12T20:20:02.899Z,4.40
2019-01-12T20:22:33.562Z,4.20
2019-01-12T20:25:04.306Z,3.63
2019-01-12T20:27:35.475Z,3.80
2019-01-12T20:30:14.126Z,4.63
2019-01-12T20:33:51.155Z,3.73
2019-01-12T20:37:16.879Z,3.17
2019-01-12T20:40:33.812Z,4.43
2019-01-12T20:43:53.593Z,3.15
2019-01-12T20:47:36.229Z,3.50
2019-01-12T20:51:02.835Z,4.40
2019-01-12T20:54:14.553Z,3.27
2019-01-12T20:57:28.907Z,3.70
2019-01-12T21:01:01.230Z,3.50
2019-01-12T21:04:25.410Z,4.87
2019-01-12T21:07:51.179Z,4.20
2019-01-12T21:11:02.347Z,2.77
2019-01-12T21:14:13.960Z,3.00
2019-01-12T21:16:51.400Z,2.45
2019-01-12T21:19:22.018Z,2.70
2019-01-12T21:21:52.708Z,3.20
2019-01-12T21:24:23.367Z,2.70
2019-01-12T21:26:54.676Z,3.30
2019-01-12T21:29:25.343Z,2.97
2019-01-12T21:31:56.068Z,3.00
2019-01-12T21:34:26.743Z,2.80
2019-01-12T21:36:57.447Z,3.13
2019-01-12T21:39:30.832Z,2.73
2019-01-12T21:42:02.407Z,2.63
2019-01-12T21:44:33.159Z,3.43
2019-01-12T21:47:03.912Z,2.40
2019-01-12T21:49:34.841Z,2.10
2019-01-12T21:52:05.858Z,2.90
2019-01-12T21:54:36.587Z,2.40
2019-01-12T21:57:07.397Z,2.10
2019-01-12T21:59:42.479Z,2.30
2019-01-12T22:02:12.097Z,2.33
2019-01-12T22:04:42.840Z,2.57
2019-01-12T22:07:13.539Z,2.40
2019-01-12T22:09:44.606Z,2.53
2019-01-12T22:12:15.525Z,2.80
2019-01-12T22:14:46.245Z,2.93
2019-01-12T22:17:16.924Z,2.80
2019-01-12T22:19:47.915Z,3.07
2019-01-12T22:22:18.580Z,2.97
2019-01-12T22:24:49.207Z,2.87
2019-01-12T22:27:20.084Z,2.40
2019-01-12T22:29:51.032Z,2.43
2019-01-12T22:32:21.632Z,2.62
2019-01-12T22:34:52.249Z,3.10
2019-01-12T22:37:23.625Z,2.73
2019-01-12T22:39:54.836Z,2.53
2019-01-12T22:42:25.476Z,2.40
2019-01-12T22:44:56.428Z,2.60
2019-01-12T22:47:27.049Z,2.30
2019-01-12T22:49:57.682Z,2.47
2019-01-12T22:52:28.374Z,2.47
2019-01-12T22:54:59.177Z,2.35
2019-01-12T22:57:30.076Z,2.33
2019-01-12T23:00:00.850Z,2.20
2019-01-12T23:02:31.454Z,2.73
2019-01-12T23:05:02.142Z,2.27
2019-01-12T23:07:33.570Z,3.87
2019-01-12T23:10:04.860Z,4.27
2019-01-12T23:12:35.837Z,3.33
2019-01-12T23:15:07.762Z,2.33
2019-01-12T23:17:39.166Z,2.67
2019-01-12T23:20:10.427Z,2.30
2019-01-12T23:22:41.508Z,2.70
2019-01-12T23:25:12.610Z,2.25
2019-01-12T23:27:43.758Z,2.10
2019-01-12T23:30:14.928Z,4.05
2019-01-12T23:32:47.444Z,2.60
2019-01-12T23:35:18.531Z,2.40
2019-01-12T23:37:49.596Z,2.53
2019-01-12T23:40:20.653Z,2.70
2019-01-12T23:42:52.635Z,2.15
2019-01-12T23:45:23.358Z,2.20
2019-01-12T23:47:54.610Z,2.40
2019-01-12T23:50:33.725Z,2.83
2019-01-12T23:53:08.274Z,2.93
2019-01-12T23:55:39.013Z,2.80
2019-01-12T23:58:09.921Z,3.20
